Hovedside
METAR-TAF:

METAR-TAF

Lufthavner :

Bowers Field

Ellensburg, Washington, USA

breddegrad: 47-02-01N, lengdegrad: 120-31-45W, høyde over havet: 536 m

Gjeldene værobservasjon

Denne rapporten ble laget for 55 minutter siden, klokken 22:53 UTC
Vind 6 kt fra Sør-sørøst
Temperatur 31°C
Luftfuktighet 18%
Trykk 1018 hPa
Sikt: 8.0 km
Skyfri himmel
dis

METAR: KELN 212253Z AUTO 15006KT 5SM HZ CLR 31/04 A3007 RMK AO2 RAE2158 SLP170 P0000 T03060044

Tid: 16:48 (23:48 UTC)


TAF: fraværende

Værobservasjoner og værvarsel for over 4000 flyplasser (METAR- og TAF-rapporter).

Tilgjengelige stasjoner er representert av de røde og gule prikkene på kartet.

Hold musepekeren over prikken for å se navnet på stasjonen.

Klikk så for å se værobservasjoner og -varsler.

For å forandre kartet kan du klikke på den grønne knappen med svart kryss for å zoome inn, på den grønne knappen med strek for å zoome ut, eller på de grønne pilene for å se tilstøtende kart.


METAR-TAF: